createdAt,value
2023-02-17T00:02:05.491Z,10.50
2023-02-17T00:07:07.937Z,10.70
2023-02-17T00:12:11.016Z,10.80
2023-02-17T00:17:13.449Z,10.90
2023-02-17T00:22:16.071Z,10.80
2023-02-17T00:27:19.635Z,10.90
2023-02-17T00:32:22.156Z,10.80
2023-02-17T00:37:26.094Z,10.90
2023-02-17T00:42:30.721Z,11.10
2023-02-17T00:47:34.962Z,10.90
2023-02-17T00:52:37.441Z,10.50
2023-02-17T00:57:40.046Z,10.30
2023-02-17T01:02:42.571Z,10.10
2023-02-17T01:07:45.065Z,10.10
2023-02-17T01:12:48.355Z,10.10
2023-02-17T01:17:50.807Z,10.10
2023-02-17T01:22:53.395Z,10.00
2023-02-17T01:27:56.104Z,9.90
2023-02-17T01:32:58.606Z,9.60
2023-02-17T01:38:01.461Z,9.10
2023-02-17T01:43:04.261Z,8.80
2023-02-17T01:48:12.220Z,9.00
2023-02-17T01:53:19.984Z,9.10
2023-02-17T01:58:24.862Z,9.30
2023-02-17T02:03:31.401Z,10.00
2023-02-17T02:08:56.686Z,10.60
2023-02-17T02:13:59.788Z,10.60
2023-02-17T02:19:48.382Z,10.50
2023-02-17T02:25:27.186Z,10.40
2023-02-17T02:30:48.216Z,9.90
2023-02-17T02:35:59.858Z,9.90
2023-02-17T02:41:52.349Z,10.10
2023-02-17T02:47:24.702Z,9.50
2023-02-17T02:52:35.081Z,9.60
2023-02-17T02:58:05.238Z,9.40
2023-02-17T03:03:36.007Z,9.10
2023-02-17T03:08:44.346Z,8.90
2023-02-17T03:13:46.997Z,9.10
2023-02-17T03:18:50.702Z,8.70
2023-02-17T03:23:53.636Z,8.80
2023-02-17T03:28:56.326Z,8.70
2023-02-17T03:33:59.763Z,8.90
2023-02-17T03:39:02.769Z,9.30
2023-02-17T03:44:05.366Z,9.30
2023-02-17T03:49:08.002Z,9.30
2023-02-17T03:54:10.702Z,9.20
2023-02-17T03:59:13.273Z,9.50
2023-02-17T04:04:15.889Z,9.60
2023-02-17T04:09:18.541Z,9.50
2023-02-17T04:14:21.136Z,9.60
2023-02-17T04:19:23.663Z,10.00
2023-02-17T04:24:26.306Z,9.90
2023-02-17T04:29:28.891Z,10.00
2023-02-17T04:34:31.528Z,9.50
2023-02-17T04:39:34.088Z,10.20
2023-02-17T04:44:36.633Z,10.30
2023-02-17T04:49:39.170Z,10.40
2023-02-17T04:54:41.683Z,9.70
2023-02-17T04:59:44.661Z,9.30
2023-02-17T05:04:47.381Z,9.30
2023-02-17T05:09:50.130Z,9.00
2023-02-17T05:14:52.630Z,9.40
2023-02-17T05:19:55.152Z,9.40
2023-02-17T05:24:58.560Z,9.50
2023-02-17T05:30:01.153Z,9.70
2023-02-17T05:35:03.791Z,9.40
2023-02-17T05:40:07.599Z,8.80
2023-02-17T05:45:10.417Z,8.00
2023-02-17T05:50:13.323Z,7.30
2023-02-17T05:55:15.930Z,6.80
2023-02-17T06:00:18.735Z,6.70
2023-02-17T06:05:21.497Z,6.70
2023-02-17T06:10:24.284Z,7.90
2023-02-17T06:15:26.819Z,8.20
2023-02-17T06:20:29.403Z,7.90
2023-02-17T06:25:32.237Z,7.50
2023-02-17T06:30:34.784Z,7.60
2023-02-17T06:35:37.814Z,7.40
2023-02-17T06:40:41.268Z,7.50
2023-02-17T06:45:43.907Z,7.30
2023-02-17T06:50:46.379Z,7.10
2023-02-17T06:55:48.919Z,8.20
2023-02-17T07:00:51.675Z,8.60
2023-02-17T07:05:58.356Z,8.20
2023-02-17T07:11:06.251Z,8.30
2023-02-17T07:16:10.244Z,8.10
2023-02-17T07:21:13.138Z,7.70
2023-02-17T07:26:15.812Z,7.70
2023-02-17T07:31:18.897Z,7.70
2023-02-17T07:36:21.488Z,7.60
2023-02-17T07:41:25.369Z,7.60
2023-02-17T07:46:28.034Z,7.50
2023-02-17T07:51:30.567Z,8.50
2023-02-17T07:56:34.017Z,8.50
2023-02-17T08:01:36.980Z,8.70
2023-02-17T08:06:42.372Z,8.40
2023-02-17T08:12:03.726Z,9.20
2023-02-17T08:17:07.630Z,9.90
2023-02-17T08:22:10.183Z,10.20
2023-02-17T08:27:14.888Z,9.80
2023-02-17T08:32:18.655Z,9.80
2023-02-17T08:37:21.243Z,10.20
2023-02-17T08:42:25.036Z,9.80
2023-02-17T08:47:27.634Z,10.20
2023-02-17T08:52:30.635Z,9.90
2023-02-17T08:57:33.128Z,10.30
2023-02-17T09:02:35.904Z,10.80
2023-02-17T09:07:39.032Z,11.20
2023-02-17T09:12:41.736Z,11.60
2023-02-17T09:17:44.384Z,11.60
2023-02-17T09:22:46.874Z,12.10
2023-02-17T09:27:50.073Z,12.30
2023-02-17T09:32:52.835Z,12.30
2023-02-17T09:37:58.788Z,12.20
2023-02-17T09:43:02.165Z,12.10
2023-02-17T09:48:11.716Z,12.20
2023-02-17T09:53:46.614Z,12.10
2023-02-17T09:58:55.570Z,13.00
2023-02-17T10:04:03.205Z,13.00
2023-02-17T10:09:13.023Z,13.00
2023-02-17T10:14:22.253Z,13.20
2023-02-17T10:19:31.634Z,13.00
2023-02-17T10:24:34.381Z,13.40
2023-02-17T10:29:49.293Z,13.50
2023-02-17T10:35:13.571Z,13.90
2023-02-17T10:40:21.801Z,13.70
2023-02-17T10:45:41.141Z,13.90
2023-02-17T10:50:45.877Z,13.80
2023-02-17T10:56:02.039Z,14.10
2023-02-17T11:01:06.392Z,14.20
2023-02-17T11:06:26.065Z,14.00
2023-02-17T11:11:31.174Z,13.90
2023-02-17T11:16:43.597Z,13.40
2023-02-17T11:21:47.190Z,13.30
2023-02-17T11:27:01.174Z,13.60
2023-02-17T11:32:13.806Z,13.70
2023-02-17T11:37:23.787Z,13.80
2023-02-17T11:42:32.353Z,13.80
2023-02-17T11:48:05.155Z,13.50
2023-02-17T11:53:33.002Z,13.90
2023-02-17T12:04:21.519Z,13.40
2023-02-17T12:09:53.017Z,13.70
2023-02-17T12:15:14.989Z,13.70
2023-02-17T12:20:53.679Z,13.50
2023-02-17T12:26:08.175Z,14.00
2023-02-17T12:31:25.017Z,13.90
2023-02-17T12:36:48.703Z,13.70
2023-02-17T12:42:07.338Z,13.30
2023-02-17T12:47:20.904Z,13.40
2023-02-17T12:52:36.744Z,13.60
2023-02-17T12:57:48.859Z,13.70
2023-02-17T13:02:51.568Z,13.60
2023-02-17T13:08:02.687Z,13.40
2023-02-17T13:13:27.686Z,13.80
2023-02-17T13:18:34.460Z,13.60
2023-02-17T13:23:42.529Z,13.30
2023-02-17T13:28:51.015Z,13.50
2023-02-17T13:33:59.424Z,13.60
2023-02-17T13:39:27.231Z,13.80
2023-02-17T13:44:43.746Z,13.50
2023-02-17T13:49:55.431Z,13.80
2023-02-17T13:55:03.942Z,13.60
2023-02-17T14:00:20.227Z,13.30
2023-02-17T14:05:43.218Z,13.60
2023-02-17T14:10:46.391Z,14.10
2023-02-17T14:15:57.717Z,13.80
2023-02-17T14:21:12.314Z,13.90
2023-02-17T14:26:36.342Z,13.80
2023-02-17T14:31:42.077Z,14.10
2023-02-17T14:36:44.838Z,14.80
2023-02-17T14:41:47.396Z,14.70
2023-02-17T14:46:50.134Z,14.40
2023-02-17T14:51:52.746Z,14.60
2023-02-17T14:57:07.949Z,14.50
2023-02-17T15:02:21.074Z,14.80
2023-02-17T15:07:23.847Z,14.60
2023-02-17T15:12:28.183Z,15.20
2023-02-17T15:17:30.925Z,14.80
2023-02-17T15:27:36.424Z,15.40
2023-02-17T15:32:38.965Z,15.30
2023-02-17T15:37:41.470Z,15.30
2023-02-17T15:42:46.694Z,15.40
2023-02-17T15:47:51.662Z,15.30
2023-02-17T15:52:54.205Z,15.00
2023-02-17T15:57:59.577Z,15.10
2023-02-17T16:08:05.386Z,15.90
2023-02-17T16:13:12.088Z,15.80
2023-02-17T16:18:23.161Z,16.00
2023-02-17T16:23:25.676Z,15.40
2023-02-17T16:28:28.928Z,14.60
2023-02-17T16:33:31.596Z,13.30
2023-02-17T16:38:34.868Z,11.70
2023-02-17T16:43:37.441Z,11.40
2023-02-17T16:48:42.740Z,13.00
2023-02-17T16:53:45.308Z,14.40
2023-02-17T16:58:47.821Z,14.70
2023-02-17T17:03:50.446Z,15.20
2023-02-17T17:08:53.712Z,15.20
2023-02-17T17:13:56.168Z,15.60
2023-02-17T17:18:59.509Z,15.60
2023-02-17T17:24:02.076Z,15.70
2023-02-17T17:29:05.268Z,15.70
2023-02-17T17:34:07.888Z,15.60
2023-02-17T17:39:36.626Z,15.90
2023-02-17T17:49:42.381Z,15.80
2023-02-17T17:54:44.897Z,15.50
2023-02-17T17:59:47.430Z,15.60
2023-02-17T18:04:49.922Z,15.70
2023-02-17T18:09:52.600Z,15.40
2023-02-17T18:14:55.972Z,15.50
2023-02-17T18:19:58.579Z,15.70
2023-02-17T18:25:00.997Z,15.70
2023-02-17T18:30:03.820Z,15.50
2023-02-17T18:35:06.902Z,15.60
2023-02-17T18:40:12.653Z,15.40
2023-02-17T18:45:16.846Z,15.60
2023-02-17T18:50:19.492Z,15.60
2023-02-17T18:55:21.909Z,15.30
2023-02-17T19:00:25.032Z,15.40
2023-02-17T19:05:29.345Z,15.60
2023-02-17T19:10:31.886Z,15.40
2023-02-17T19:15:34.523Z,15.60
2023-02-17T19:20:37.023Z,15.70
2023-02-17T19:25:39.503Z,15.00
2023-02-17T19:30:42.130Z,15.20
2023-02-17T19:35:45.187Z,15.10
2023-02-17T19:40:47.868Z,15.10
2023-02-17T19:45:50.437Z,15.30
2023-02-17T19:50:59.696Z,15.20
2023-02-17T19:56:12.369Z,15.20
2023-02-17T20:01:17.734Z,15.10
2023-02-17T20:06:26.625Z,15.40
2023-02-17T20:11:30.334Z,15.10
2023-02-17T20:16:33.601Z,15.10
2023-02-17T20:21:38.680Z,14.90
2023-02-17T20:26:44.737Z,15.10
2023-02-17T20:31:47.304Z,15.20
2023-02-17T20:36:49.798Z,14.60
2023-02-17T20:41:53.786Z,14.90
2023-02-17T20:46:57.169Z,14.70
2023-02-17T20:51:59.827Z,14.70
2023-02-17T20:57:02.428Z,14.70
2023-02-17T21:02:05.073Z,14.60
2023-02-17T21:07:07.708Z,14.60
2023-02-17T21:12:10.200Z,14.40
2023-02-17T21:17:12.694Z,15.10
2023-02-17T21:22:15.237Z,14.90
2023-02-17T21:27:19.023Z,14.90
2023-02-17T21:32:21.993Z,14.30
2023-02-17T21:37:25.722Z,14.80
2023-02-17T21:42:46.625Z,15.10
2023-02-17T21:47:49.156Z,14.80
2023-02-17T21:52:51.706Z,15.20
2023-02-17T21:57:54.240Z,15.10
2023-02-17T22:02:56.743Z,14.30
2023-02-17T22:07:59.312Z,14.40
2023-02-17T22:13:01.824Z,14.50
2023-02-17T22:18:04.505Z,14.60
2023-02-17T22:23:07.317Z,14.40
2023-02-17T22:28:11.243Z,14.50
2023-02-17T22:33:14.499Z,14.50
2023-02-17T22:38:17.373Z,14.80
2023-02-17T22:43:19.908Z,14.70
2023-02-17T22:48:22.417Z,14.60
2023-02-17T22:53:25.034Z,14.20
2023-02-17T22:58:28.204Z,14.60
2023-02-17T23:03:31.037Z,14.00
2023-02-17T23:08:33.920Z,14.80
2023-02-17T23:13:37.485Z,14.70
2023-02-17T23:18:43.833Z,14.60
2023-02-17T23:23:46.305Z,14.70
2023-02-17T23:28:48.800Z,14.70
2023-02-17T23:33:54.125Z,14.90
2023-02-17T23:38:59.352Z,14.30
2023-02-17T23:44:01.986Z,14.50
2023-02-17T23:49:04.999Z,15.00
2023-02-17T23:54:07.558Z,15.00
2023-02-17T23:59:11.076Z,14.80
